X  Schlie├čen METAR Luftfahrt Wetterdaten     EHKD De Kooy Airport
Temperatur
14°C Temperatur
12°C Taupunkt
88% Feuchtigkeit



Wind
2 M/S
5 MPS
8 KM/S
4 KTS



360°
N
Aktuelle Wetterlage

Klar Klar
Luftdruck 1009.82 (hPa) - 29.82 (inHg)
Sichtweite 6 (Meile) - 9.7 (Km)
Flughafen
Flughafen Code EHKD

Position : De Kooy Airport
Entfernung: 34 (Km)

Metar:
EHKD 190225Z AUTO 36004KT 330V030 9999 NCD 14/12 Q1010 BLU

Zeit: 19-05-2024 04:25 CEST